createdAt,value
2019-02-05T00:02:50.821Z,6.50
2019-02-05T00:05:53.838Z,5.30
2019-02-05T00:08:56.566Z,7.00
2019-02-05T00:11:59.259Z,6.50
2019-02-05T00:15:01.991Z,6.30
2019-02-05T00:18:04.837Z,7.00
2019-02-05T00:21:07.635Z,6.80
2019-02-05T00:24:10.594Z,7.17
2019-02-05T00:27:13.247Z,6.53
2019-02-05T00:30:16.559Z,6.67
2019-02-05T00:33:19.639Z,6.60
2019-02-05T00:36:22.397Z,6.20
2019-02-05T00:39:25.057Z,7.80
2019-02-05T00:42:28.009Z,7.23
2019-02-05T00:45:30.660Z,7.10
2019-02-05T00:48:33.371Z,7.60
2019-02-05T00:51:36.152Z,7.37
2019-02-05T00:54:38.827Z,7.67
2019-02-05T00:57:41.542Z,6.50
2019-02-05T01:00:44.248Z,7.40
2019-02-05T01:03:46.920Z,7.80
2019-02-05T01:06:49.621Z,7.20
2019-02-05T01:09:52.267Z,7.47
2019-02-05T01:12:55.169Z,6.87
2019-02-05T01:15:58.281Z,8.00
2019-02-05T01:19:01.115Z,8.23
2019-02-05T01:22:03.972Z,8.83
2019-02-05T01:25:06.800Z,7.70
2019-02-05T01:28:09.439Z,7.93
2019-02-05T01:31:12.010Z,8.13
2019-02-05T01:34:14.590Z,8.50
2019-02-05T01:37:17.334Z,8.10
2019-02-05T01:40:22.069Z,8.53
2019-02-05T01:43:24.834Z,8.90
2019-02-05T01:46:27.496Z,9.80
2019-02-05T01:49:30.248Z,9.43
2019-02-05T01:52:33.080Z,10.20
2019-02-05T01:55:35.800Z,10.70
2019-02-05T01:58:38.494Z,9.70
2019-02-05T02:01:41.484Z,10.20
2019-02-05T02:04:44.200Z,9.90
2019-02-05T02:07:46.921Z,10.33
2019-02-05T02:10:50.075Z,10.00
2019-02-05T02:13:52.714Z,10.60
2019-02-05T02:16:55.291Z,10.23
2019-02-05T02:19:58.049Z,10.13
2019-02-05T02:23:00.730Z,10.83
2019-02-05T02:26:03.738Z,10.43
2019-02-05T02:29:06.409Z,10.23
2019-02-05T02:32:09.115Z,10.40
2019-02-05T02:35:11.960Z,10.97
2019-02-05T02:38:14.777Z,10.97
2019-02-05T02:41:17.860Z,11.33
2019-02-05T02:44:20.546Z,10.20
2019-02-05T02:47:23.345Z,10.80
2019-02-05T02:50:25.995Z,10.80
2019-02-05T02:53:28.752Z,11.30
2019-02-05T02:56:31.475Z,11.70
2019-02-05T02:59:34.278Z,11.17
2019-02-05T03:02:37.134Z,11.17
2019-02-05T03:05:39.999Z,12.13
2019-02-05T03:08:45.760Z,11.53
2019-02-05T03:11:48.775Z,11.17
2019-02-05T03:14:51.571Z,11.30
2019-02-05T03:17:54.335Z,11.23
2019-02-05T03:20:57.004Z,12.53
2019-02-05T03:23:59.820Z,12.70
2019-02-05T03:27:02.543Z,12.77
2019-02-05T03:30:06.720Z,12.70
2019-02-05T03:33:10.430Z,13.80
2019-02-05T03:36:13.434Z,13.13
2019-02-05T03:39:16.105Z,14.17
2019-02-05T03:42:18.701Z,12.80
2019-02-05T03:45:22.411Z,13.40
2019-02-05T03:48:25.544Z,13.60
2019-02-05T03:52:00.171Z,13.00
2019-02-05T03:55:50.007Z,13.97
2019-02-05T03:59:33.176Z,13.50
2019-02-05T04:03:19.375Z,13.90
2019-02-05T04:06:46.249Z,15.70
2019-02-05T04:10:39.922Z,13.47
2019-02-05T04:14:19.280Z,14.20
2019-02-05T04:18:00.862Z,16.37
2019-02-05T04:21:34.206Z,14.40
2019-02-05T04:25:21.260Z,15.47
2019-02-05T04:28:57.201Z,15.50
2019-02-05T04:32:41.905Z,14.90
2019-02-05T04:36:26.002Z,16.00
2019-02-05T04:40:05.932Z,17.67
2019-02-05T04:43:35.899Z,16.77
2019-02-05T04:47:26.616Z,16.30
2019-02-05T04:50:51.310Z,17.50
2019-02-05T04:54:06.300Z,16.43
2019-02-05T04:58:01.749Z,17.90
2019-02-05T05:01:18.869Z,20.30
2019-02-05T05:04:56.565Z,17.67
2019-02-05T05:08:30.720Z,18.80
2019-02-05T05:11:33.379Z,18.03
2019-02-05T05:14:36.192Z,19.97
2019-02-05T05:17:39.041Z,20.17
2019-02-05T05:20:42.511Z,20.40
2019-02-05T05:23:45.464Z,19.97
2019-02-05T05:26:49.190Z,20.40
2019-02-05T05:29:52.069Z,19.63
2019-02-05T05:32:54.772Z,21.13
2019-02-05T05:35:57.455Z,21.80
2019-02-05T05:39:00.263Z,20.80
2019-02-05T05:42:03.484Z,21.00
2019-02-05T05:45:10.014Z,22.17
2019-02-05T05:48:12.701Z,22.30
2019-02-05T05:51:15.354Z,22.80
2019-02-05T05:54:18.130Z,23.00
2019-02-05T05:57:20.954Z,23.80
2019-02-05T06:00:23.835Z,23.60
2019-02-05T06:03:26.585Z,23.60
2019-02-05T06:06:29.321Z,24.37
2019-02-05T06:09:32.696Z,23.60
2019-02-05T06:12:35.401Z,23.63
2019-02-05T06:15:38.150Z,23.43
2019-02-05T06:18:40.939Z,23.73
2019-02-05T06:21:43.729Z,24.13
2019-02-05T06:24:46.453Z,24.30
2019-02-05T06:27:49.159Z,23.70
2019-02-05T06:30:51.827Z,25.10
2019-02-05T06:33:55.048Z,24.70
2019-02-05T06:36:57.705Z,23.03
2019-02-05T06:40:01.576Z,22.90
2019-02-05T06:43:04.574Z,24.70
2019-02-05T06:46:07.279Z,25.60
2019-02-05T06:49:09.963Z,24.37
2019-02-05T06:52:12.703Z,23.20
2019-02-05T06:55:15.557Z,23.67
2019-02-05T06:58:21.208Z,25.30
2019-02-05T07:01:23.930Z,25.60
2019-02-05T07:04:26.635Z,24.07
2019-02-05T07:07:29.421Z,24.17
2019-02-05T07:10:32.174Z,23.33
2019-02-05T07:13:34.900Z,23.90
2019-02-05T07:16:37.608Z,23.67
2019-02-05T07:19:40.355Z,24.17
2019-02-05T07:22:43.459Z,24.77
2019-02-05T07:25:46.329Z,26.43
2019-02-05T07:28:58.123Z,25.70
2019-02-05T07:31:53.537Z,24.60
2019-02-05T07:34:56.215Z,24.80
2019-02-05T07:37:58.935Z,24.70
2019-02-05T07:41:01.738Z,24.87
2019-02-05T07:44:05.090Z,23.37
2019-02-05T07:47:07.841Z,23.77
2019-02-05T07:50:16.299Z,24.50
2019-02-05T07:53:19.866Z,25.23
2019-02-05T07:56:22.599Z,22.80
2019-02-05T07:59:25.878Z,21.53
2019-02-05T08:02:28.611Z,23.20
2019-02-05T08:05:31.886Z,22.40
2019-02-05T08:08:34.709Z,21.77
2019-02-05T08:11:41.259Z,22.03
2019-02-05T08:14:42.988Z,21.60
2019-02-05T08:17:45.881Z,22.27
2019-02-05T08:20:50.510Z,22.20
2019-02-05T08:23:53.275Z,20.90
2019-02-05T08:26:55.980Z,19.40
2019-02-05T08:29:58.691Z,20.90
2019-02-05T08:33:01.440Z,19.07
2019-02-05T08:36:04.302Z,19.70
2019-02-05T08:39:08.997Z,18.47
2019-02-05T08:42:11.779Z,18.30
2019-02-05T08:45:17.059Z,18.23
2019-02-05T08:48:21.035Z,18.93
2019-02-05T08:51:23.735Z,19.67
2019-02-05T08:54:26.599Z,19.43
2019-02-05T08:57:29.345Z,19.73
2019-02-05T09:00:36.164Z,19.10
2019-02-05T09:03:40.236Z,21.17
2019-02-05T09:06:43.051Z,19.47
2019-02-05T09:09:49.745Z,20.10
2019-02-05T09:12:52.410Z,19.20
2019-02-05T09:15:55.255Z,18.33
2019-02-05T09:18:58.319Z,20.93
2019-02-05T09:22:01.763Z,22.20
2019-02-05T09:25:08.049Z,22.90
2019-02-05T09:28:11.220Z,22.73
2019-02-05T09:31:13.953Z,25.00
2019-02-05T09:34:16.759Z,21.17
2019-02-05T09:37:19.472Z,23.17
2019-02-05T09:40:25.216Z,21.77
2019-02-05T09:43:27.999Z,22.57
2019-02-05T09:46:30.739Z,21.80
2019-02-05T09:49:33.502Z,21.20
2019-02-05T09:52:36.289Z,22.03
2019-02-05T09:55:39.089Z,21.77
2019-02-05T09:58:42.834Z,21.87
2019-02-05T10:01:45.663Z,21.63
2019-02-05T10:04:48.354Z,20.83
2019-02-05T10:07:51.258Z,20.90
2019-02-05T10:10:53.947Z,21.17
2019-02-05T10:13:56.817Z,20.40
2019-02-05T10:16:59.622Z,19.93
2019-02-05T10:20:02.803Z,19.37
2019-02-05T10:23:06.838Z,22.43
2019-02-05T10:26:09.571Z,21.93
2019-02-05T10:29:12.344Z,20.73
2019-02-05T10:32:15.009Z,20.03
2019-02-05T10:35:17.952Z,18.60
2019-02-05T10:38:20.733Z,20.37
2019-02-05T10:41:23.543Z,21.03
2019-02-05T10:44:26.228Z,19.77
2019-02-05T10:47:29.181Z,19.47
2019-02-05T10:50:32.023Z,20.50
2019-02-05T10:53:35.776Z,20.43
2019-02-05T10:56:38.376Z,20.77
2019-02-05T10:59:41.053Z,19.60
2019-02-05T11:02:43.708Z,20.57
2019-02-05T11:05:46.479Z,20.33
2019-02-05T11:08:49.149Z,21.23
2019-02-05T11:11:51.938Z,21.43
2019-02-05T11:14:54.818Z,19.97
2019-02-05T11:17:57.650Z,19.30
2019-02-05T11:21:00.582Z,20.07
2019-02-05T11:24:03.647Z,19.50
2019-02-05T11:27:06.384Z,19.37
2019-02-05T11:30:20.206Z,18.50
2019-02-05T11:33:22.803Z,21.50
2019-02-05T11:36:26.712Z,18.87
2019-02-05T11:39:30.829Z,19.80
2019-02-05T11:42:33.564Z,19.27
2019-02-05T11:45:36.490Z,19.63
2019-02-05T11:48:39.223Z,19.87
2019-02-05T11:51:41.963Z,20.47
2019-02-05T11:54:44.668Z,20.83
2019-02-05T11:57:47.423Z,21.37
2019-02-05T12:00:54.659Z,20.60
2019-02-05T12:03:57.352Z,21.07
2019-02-05T12:07:00.039Z,20.10
2019-02-05T12:10:03.488Z,19.80
2019-02-05T12:13:06.520Z,21.90
2019-02-05T12:16:09.264Z,20.17
2019-02-05T12:19:11.909Z,21.17
2019-02-05T12:22:14.636Z,19.53
2019-02-05T12:25:17.513Z,23.13
2019-02-05T12:28:21.425Z,21.60
2019-02-05T12:31:24.107Z,21.40
2019-02-05T12:34:26.802Z,22.00
2019-02-05T12:37:29.812Z,20.87
2019-02-05T12:40:32.494Z,23.40
2019-02-05T12:43:35.333Z,22.53
2019-02-05T12:46:39.062Z,25.40
2019-02-05T12:49:41.849Z,21.00
2019-02-05T12:52:44.498Z,21.20
2019-02-05T12:55:47.320Z,22.97
2019-02-05T12:58:50.102Z,22.30
2019-02-05T13:01:52.913Z,19.50
2019-02-05T13:04:55.617Z,20.00
2019-02-05T13:07:58.354Z,18.80
2019-02-05T13:11:01.127Z,21.13
2019-02-05T13:14:04.258Z,19.90
2019-02-05T13:17:07.124Z,20.33
2019-02-05T13:20:13.647Z,18.90
2019-02-05T13:23:16.489Z,19.60
2019-02-05T13:26:19.173Z,17.57
2019-02-05T13:29:21.820Z,18.60
2019-02-05T13:32:24.563Z,22.47
2019-02-05T13:35:27.657Z,17.67
2019-02-05T13:38:30.438Z,18.40
2019-02-05T13:41:33.211Z,17.87
2019-02-05T13:44:36.003Z,17.60
2019-02-05T13:47:39.117Z,17.10
2019-02-05T13:50:41.838Z,15.77
2019-02-05T13:53:44.463Z,15.30
2019-02-05T13:56:47.594Z,14.60
2019-02-05T13:59:50.139Z,14.40
2019-02-05T14:02:53.040Z,17.47
2019-02-05T14:05:55.903Z,16.23
2019-02-05T14:09:09.998Z,16.17
2019-02-05T14:12:03.068Z,16.20
2019-02-05T14:15:07.275Z,14.27
2019-02-05T14:18:10.514Z,13.77
2019-02-05T14:21:13.367Z,17.17
2019-02-05T14:24:16.162Z,15.63
2019-02-05T14:27:18.839Z,14.13
2019-02-05T14:30:29.098Z,14.77
2019-02-05T14:33:31.794Z,15.63
2019-02-05T14:36:34.376Z,15.30
2019-02-05T14:39:37.085Z,15.27
2019-02-05T14:42:39.742Z,14.03
2019-02-05T14:45:42.418Z,15.40
2019-02-05T14:48:45.207Z,14.20
2019-02-05T14:51:47.906Z,13.50
2019-02-05T14:54:50.758Z,15.67
2019-02-05T14:57:53.408Z,14.90
2019-02-05T15:00:56.029Z,15.77
2019-02-05T15:03:58.668Z,14.30
2019-02-05T15:07:01.357Z,14.00
2019-02-05T15:10:05.787Z,14.63
2019-02-05T15:13:08.691Z,14.60
2019-02-05T15:16:11.428Z,14.07
2019-02-05T15:19:14.192Z,14.73
2019-02-05T15:22:16.813Z,16.23
2019-02-05T15:25:20.057Z,14.07
2019-02-05T15:28:23.857Z,15.60
2019-02-05T15:31:26.830Z,14.50
2019-02-05T15:34:30.808Z,14.97
2019-02-05T15:37:33.493Z,14.87
2019-02-05T15:40:36.567Z,14.50
2019-02-05T15:43:39.453Z,15.07
2019-02-05T15:46:42.121Z,14.40
2019-02-05T15:49:44.919Z,15.10
2019-02-05T15:52:47.983Z,14.37
2019-02-05T15:55:50.842Z,14.53
2019-02-05T15:58:53.497Z,15.73
2019-02-05T16:02:06.072Z,18.30
2019-02-05T16:05:00.963Z,14.10
2019-02-05T16:08:03.999Z,14.90
2019-02-05T16:11:07.057Z,14.93
2019-02-05T16:14:10.582Z,14.97
2019-02-05T16:17:13.421Z,13.80
2019-02-05T16:20:16.461Z,15.63
2019-02-05T16:23:19.172Z,14.43
2019-02-05T16:26:21.877Z,13.57
2019-02-05T16:29:24.783Z,14.60
2019-02-05T16:32:27.446Z,15.20
2019-02-05T16:35:30.162Z,15.00
2019-02-05T16:38:32.919Z,14.73
2019-02-05T16:41:35.648Z,14.70
2019-02-05T16:44:39.737Z,14.70
2019-02-05T16:47:42.327Z,14.53
2019-02-05T16:50:46.316Z,14.27
2019-02-05T16:53:49.256Z,14.73
2019-02-05T16:56:51.983Z,14.40
2019-02-05T16:59:54.668Z,14.30
2019-02-05T17:02:57.469Z,14.30
2019-02-05T17:06:28.527Z,16.00
2019-02-05T17:09:32.681Z,15.37
2019-02-05T17:12:35.501Z,15.47
2019-02-05T17:15:40.367Z,14.97
2019-02-05T17:18:43.033Z,13.97
2019-02-05T17:21:47.490Z,15.47
2019-02-05T17:24:50.352Z,14.10
2019-02-05T17:27:54.286Z,13.87
2019-02-05T17:30:57.523Z,13.83
2019-02-05T17:34:00.723Z,14.67
2019-02-05T17:37:03.712Z,14.50
2019-02-05T17:40:08.317Z,13.37
2019-02-05T17:43:11.394Z,13.83
2019-02-05T17:46:14.332Z,13.73
2019-02-05T17:49:17.157Z,13.20
2019-02-05T17:52:20.078Z,14.77
2019-02-05T17:55:26.284Z,15.80
2019-02-05T17:58:28.994Z,14.90
2019-02-05T18:01:32.046Z,16.53
2019-02-05T18:04:47.723Z,14.53
2019-02-05T18:07:57.222Z,14.47
2019-02-05T18:11:00.817Z,14.67
2019-02-05T18:14:03.868Z,15.70
2019-02-05T18:17:06.655Z,13.40
2019-02-05T18:20:09.765Z,14.37
2019-02-05T18:23:12.735Z,17.37
2019-02-05T18:26:15.635Z,15.20
2019-02-05T18:29:18.486Z,14.27
2019-02-05T18:32:21.354Z,14.83
2019-02-05T18:35:24.367Z,15.57
2019-02-05T18:38:27.329Z,16.23
2019-02-05T18:41:30.013Z,14.70
2019-02-05T18:44:37.942Z,14.73
2019-02-05T18:47:40.798Z,15.57
2019-02-05T18:50:43.576Z,14.10
2019-02-05T18:53:46.503Z,16.80
2019-02-05T18:56:49.633Z,15.30
2019-02-05T18:59:52.632Z,17.30
2019-02-05T19:02:55.357Z,16.90
2019-02-05T19:05:58.632Z,16.40
2019-02-05T19:09:01.491Z,16.77
2019-02-05T19:12:05.158Z,16.00
2019-02-05T19:15:14.203Z,15.37
2019-02-05T19:18:17.097Z,14.13
2019-02-05T19:21:20.067Z,14.53
2019-02-05T19:24:41.292Z,13.70
2019-02-05T19:27:44.141Z,16.70
2019-02-05T19:30:47.350Z,16.03
2019-02-05T19:33:50.187Z,15.03
2019-02-05T19:36:53.237Z,15.53
2019-02-05T19:39:56.343Z,17.97
2019-02-05T19:42:59.109Z,17.40
2019-02-05T19:46:21.394Z,17.00
2019-02-05T19:49:26.366Z,14.53
2019-02-05T19:52:29.339Z,14.90
2019-02-05T19:55:32.298Z,16.30
2019-02-05T19:58:35.289Z,17.47
2019-02-05T20:01:38.570Z,18.60
2019-02-05T20:04:41.341Z,19.73
2019-02-05T20:07:44.477Z,21.20
2019-02-05T20:10:47.531Z,20.17
2019-02-05T20:13:50.186Z,20.57
2019-02-05T20:16:53.047Z,22.07
2019-02-05T20:19:56.102Z,20.57
2019-02-05T20:22:59.425Z,22.07
2019-02-05T20:26:02.769Z,20.70
2019-02-05T20:29:05.772Z,22.77
2019-02-05T20:32:11.281Z,19.80
2019-02-05T20:35:14.156Z,19.10
2019-02-05T20:38:16.999Z,16.60
2019-02-05T20:41:20.412Z,18.50
2019-02-05T20:44:23.493Z,20.77
2019-02-05T20:47:26.547Z,19.67
2019-02-05T20:50:31.658Z,21.73
2019-02-05T20:53:34.997Z,22.20
2019-02-05T20:56:38.366Z,23.00
2019-02-05T20:59:41.548Z,24.87
2019-02-05T21:02:44.889Z,24.40
2019-02-05T21:05:49.887Z,25.80
2019-02-05T21:08:53.387Z,27.03
2019-02-05T21:11:56.349Z,24.83
2019-02-05T21:14:59.213Z,25.00
2019-02-05T21:18:01.968Z,24.97
2019-02-05T21:21:05.836Z,27.57
2019-02-05T21:24:08.739Z,25.40
2019-02-05T21:27:11.942Z,26.00
2019-02-05T21:30:17.759Z,24.80
2019-02-05T21:33:20.529Z,25.30
2019-02-05T21:36:23.261Z,24.27
2019-02-05T21:39:26.023Z,25.33
2019-02-05T21:42:28.695Z,25.40
2019-02-05T21:45:31.551Z,27.00
2019-02-05T21:48:34.208Z,26.70
2019-02-05T21:54:41.457Z,27.57
2019-02-05T21:57:44.331Z,26.60
2019-02-05T22:00:47.179Z,27.00
2019-02-05T22:03:50.065Z,25.40
2019-02-05T22:06:53.781Z,23.40
2019-02-05T22:09:56.543Z,24.40
2019-02-05T22:12:59.355Z,26.10
2019-02-05T22:16:03.560Z,27.23
2019-02-05T22:19:06.362Z,27.27
2019-02-05T22:22:10.513Z,25.17
2019-02-05T22:25:18.702Z,27.93
2019-02-05T22:28:22.453Z,27.07
2019-02-05T22:31:25.663Z,19.80
2019-02-05T22:34:38.902Z,25.40
2019-02-05T22:37:34.301Z,24.93
2019-02-05T22:40:36.959Z,24.27
2019-02-05T22:43:40.087Z,25.00
2019-02-05T22:46:42.823Z,24.47
2019-02-05T22:49:45.684Z,25.70
2019-02-05T22:52:48.493Z,25.20
2019-02-05T22:55:51.181Z,25.57
2019-02-05T22:58:53.951Z,25.17
2019-02-05T23:01:58.923Z,26.20
2019-02-05T23:05:23.629Z,26.00
2019-02-05T23:08:26.543Z,24.87
2019-02-05T23:11:45.162Z,24.77
2019-02-05T23:14:52.220Z,25.03
2019-02-05T23:17:55.209Z,24.40
2019-02-05T23:20:58.902Z,23.87
2019-02-05T23:24:01.649Z,25.80
2019-02-05T23:27:05.761Z,24.80
2019-02-05T23:30:32.882Z,23.70
2019-02-05T23:33:35.655Z,22.90
2019-02-05T23:36:38.376Z,25.50
2019-02-05T23:39:42.922Z,26.50
2019-02-05T23:42:45.611Z,25.20
2019-02-05T23:46:00.880Z,26.07
2019-02-05T23:48:52.807Z,24.90
2019-02-05T23:51:55.541Z,23.63
2019-02-05T23:54:58.240Z,24.57
2019-02-05T23:58:00.959Z,24.17
